Keret — UAEH — position and weather

sailwx.info

Track history (hours):
 
Tides and Currents Weather Stations Pressure Air Temp Water Temp Dewpoint Dewpoint Depression Visibility Wind Speed Wind Dir Waves Ship Positions

Keret

Last reported at 2015-Jan-25 12:12 UTC. Time now 2015-Jan-25 14:20 UTC.
Position N 36°44' W 009°32'.

Length 82 m; draft 3.4 m.

Type: Cargo ship. MMSI: 273333000.

Date/timePositionNaut miles runAvg speedWind from/ knotsBaromVisibWave heightAir tempDewpointWater temp
2015-Jan-25 12:12N 36°44' W 009°32'710.0
2015-Jan-25 11:31N 36°51' W 009°35'1310.7
2015-Jan-25 10:18N 37°03' W 009°39'810.5
2015-Jan-25 09:33N 37°11' W 009°41'1010.2
2015-Jan-25 08:33N 37°21' W 009°44'1110.7
2015-Jan-25 07:33N 37°31' W 009°47'1110.9
2015-Jan-25 06:33N 37°42' W 009°50'1111.1
2015-Jan-25 05:33N 37°53' W 009°53'2210.6
2015-Jan-25 03:26N 38°15' W 009°60'1110.9
2015-Jan-25 02:25N 38°25' W 010°03'1311.1
2015-Jan-25 01:16N 38°38' W 010°06'811.4
2015-Jan-25 00:32N 38°46' W 010°07'  
2015-Jan-21 17:30N 50°18' W 003°27'7 7.7
2015-Jan-21 16:33N 50°25' W 003°30'1 0.9
2015-Jan-21 15:27N 50°25' W 003°31'0 0.0
2015-Jan-21 14:27N 50°25' W 003°31'0 0.0
2015-Jan-21 13:33N 50°25' W 003°31'0 0.0
2015-Jan-21 12:33N 50°25' W 003°31'0 0.0
2015-Jan-21 11:30N 50°25' W 003°31'0 0.0
2015-Jan-21 10:30N 50°25' W 003°31'0 0.0
2015-Jan-21 09:27N 50°25' W 003°31'0 0.0
2015-Jan-21 08:33N 50°25' W 003°31'0 0.0
2015-Jan-21 07:30N 50°25' W 003°31'0 0.0
2015-Jan-21 06:33N 50°25' W 003°31'0 0.0
2015-Jan-21 05:27N 50°25' W 003°31'0 0.1
2015-Jan-21 04:30N 50°25' W 003°31'0 0.0
2015-Jan-21 03:30N 50°25' W 003°31'0 0.0
2015-Jan-21 02:30N 50°25' W 003°31'0 0.0
2015-Jan-21 01:33N 50°25' W 003°31'0 0.0
2015-Jan-21 00:30N 50°25' W 003°31'0 0.1
2015-Jan-20 23:33N 50°25' W 003°31'0 0.0
2015-Jan-20 22:33N 50°25' W 003°31'0 0.0
2015-Jan-20 21:30N 50°25' W 003°31'0 0.0
2015-Jan-20 20:33N 50°25' W 003°31'0 0.0
2015-Jan-20 19:30N 50°25' W 003°31'0 0.0
2015-Jan-20 18:21N 50°25' W 003°31'0 0.0
2015-Jan-20 17:33N 50°25' W 003°31'0 0.0
2015-Jan-20 16:33N 50°25' W 003°31'0 0.0
2015-Jan-20 15:33N 50°25' W 003°31'0 0.0
2015-Jan-20 14:33N 50°25' W 003°31'0 0.1
2015-Jan-20 13:33N 50°25' W 003°31'0 0.1
2015-Jan-20 12:30N 50°25' W 003°31'0 0.0
2015-Jan-20 11:30N 50°25' W 003°31'0 0.0
2015-Jan-20 10:33N 50°25' W 003°31'0 0.0
2015-Jan-20 09:33N 50°25' W 003°31'0 0.0
2015-Jan-20 08:33N 50°25' W 003°31'0 0.0
2015-Jan-20 07:33N 50°25' W 003°31'0 0.0
2015-Jan-20 06:33N 50°25' W 003°31'0 0.0
2015-Jan-20 05:30N 50°25' W 003°31'0 0.0
2015-Jan-20 04:33N 50°25' W 003°31'0 0.0
2015-Jan-20 03:24N 50°25' W 003°31'0 0.0
2015-Jan-20 02:13N 50°25' W 003°31'0 0.0
2015-Jan-20 01:10N 50°25' W 003°31'0 0.0
2015-Jan-20 00:34N 50°25' W 003°31'0 0.0
2015-Jan-19 23:33N 50°25' W 003°31'0 0.1
2015-Jan-19 22:33N 50°25' W 003°31'0 0.0
2015-Jan-19 21:33N 50°25' W 003°31'0 0.0
2015-Jan-19 20:27N 50°25' W 003°31'0 0.0
2015-Jan-19 19:06N 50°25' W 003°31'0 0.0
2015-Jan-19 18:33N 50°25' W 003°31'0 0.0
2015-Jan-19 17:33N 50°25' W 003°31'0 0.3
2015-Jan-19 16:33N 50°25' W 003°31'1010.5
2015-Jan-19 15:34N 50°23' W 003°14'1211.2
2015-Jan-19 14:27N 50°21' W 002°56'12310.2
2015-Jan-19 02:20N 50°35' E 000°17'911.9
2015-Jan-19 01:33N 50°38' E 000°31'1111.4
2015-Jan-19 00:34N 50°44' E 000°46'29 9.6
2015-Jan-18 21:34N 51°02' E 001°22'10 9.8
2015-Jan-18 20:33N 51°08' E 001°34'1111.3
2015-Jan-18 19:34N 51°16' E 001°47'1312.7
2015-Jan-18 18:33N 51°28' E 001°55'4611.1
2015-Jan-18 14:23N 52°02' E 002°45'132 6.0
2015-Jan-17 16:22N 53°48' E 004°57'2 2.4
2015-Jan-17 15:32N 53°47' E 004°60'3 2.8
2015-Jan-17 14:33N 53°46' E 005°04'3 3.5
2015-Jan-17 13:34N 53°45' E 005°09'4 3.9
2015-Jan-17 12:33N 53°45' E 005°16'5 4.8
2015-Jan-17 11:34N 53°44' E 005°24'6 6.3
2015-Jan-17 10:33N 53°44' E 005°35'7 6.4
2015-Jan-17 09:33N 53°45' E 005°46'8 6.8
2015-Jan-17 08:26N 53°46' E 005°58'53 6.8
2015-Jan-17 00:33N 53°60' E 007°26'9 9.0
2015-Jan-16 23:34N 54°02' E 007°40'8 8.0
2015-Jan-16 22:33N 54°01' E 007°54'8 8.3
2015-Jan-16 21:34N 54°01' E 008°08'9 8.7
2015-Jan-16 20:33N 53°60' E 008°23'9 8.8
2015-Jan-16 19:33N 53°57' E 008°38'7 7.3
2015-Jan-16 18:34N 53°52' E 008°45'7 7.4
2015-Jan-16 17:34N 53°51' E 008°57'7 7.3
2015-Jan-16 16:34N 53°54' E 009°09'2 1.6
2015-Jan-16 15:33N 53°55' E 009°11'0 0.0
2015-Jan-16 14:34N 53°55' E 009°11'0 0.0
2015-Jan-16 13:33N 53°55' E 009°11'2 2.1
2015-Jan-16 12:34N 53°56' E 009°13'8 8.3
2015-Jan-16 11:33N 54°04' E 009°19'5 4.8
2015-Jan-16 10:26N 54°09' E 009°22'26 5.4
2015-Jan-16 05:33N 54°22' E 010°01'3 3.3
2015-Jan-16 04:32N 54°22' E 010°07'0 0.0
2015-Jan-16 03:26N 54°22' E 010°07'0 0.0
2015-Jan-16 02:32N 54°22' E 010°07'0 0.0
2015-Jan-16 01:20N 54°22' E 010°07'0 0.0
2015-Jan-16 00:29N 54°22' E 010°07'0 0.0
2015-Jan-15 22:32N 54°22' E 010°07'0 0.0
2015-Jan-15 21:32N 54°22' E 010°07'0 0.0
2015-Jan-15 20:29N 54°22' E 010°07'0 0.0
2015-Jan-15 19:29N 54°22' E 010°07'0 0.0
2015-Jan-15 18:26N 54°22' E 010°07'0 0.0
2015-Jan-15 17:32N 54°22' E 010°07'0 0.0
2015-Jan-15 16:23N 54°22' E 010°07'0 0.0
2015-Jan-15 15:32N 54°22' E 010°07'0 0.0
2015-Jan-15 14:32N 54°22' E 010°07'0 0.0
2015-Jan-15 13:32N 54°22' E 010°07'0 0.0
2015-Jan-15 12:29N 54°22' E 010°07'  
Track history (hours):
 
Tides and Currents Weather Stations Pressure Air Temp Water Temp Dewpoint Dewpoint Depression Visibility Wind Speed Wind Dir Waves Ship Positions

Keret

Last reported at 2015-Jan-25 12:12 UTC. Time now 2015-Jan-25 14:20 UTC.
Position N 36°44' W 009°32'.

Length 82 m; draft 3.4 m.

Type: Cargo ship. MMSI: 273333000.

Date/timePositionNaut miles runAvg speedWind from/ knotsBaromVisibWave heightAir tempDewpointWater temp
2015-Jan-25 12:12N 36°44' W 009°32'710.0
2015-Jan-25 11:31N 36°51' W 009°35'1310.7
2015-Jan-25 10:18N 37°03' W 009°39'810.5
2015-Jan-25 09:33N 37°11' W 009°41'1010.2
2015-Jan-25 08:33N 37°21' W 009°44'1110.7
2015-Jan-25 07:33N 37°31' W 009°47'1110.9
2015-Jan-25 06:33N 37°42' W 009°50'1111.1
2015-Jan-25 05:33N 37°53' W 009°53'2210.6
2015-Jan-25 03:26N 38°15' W 009°60'1110.9
2015-Jan-25 02:25N 38°25' W 010°03'1311.1
2015-Jan-25 01:16N 38°38' W 010°06'811.4
2015-Jan-25 00:32N 38°46' W 010°07'  
2015-Jan-21 17:30N 50°18' W 003°27'7 7.7
2015-Jan-21 16:33N 50°25' W 003°30'1 0.9
2015-Jan-21 15:27N 50°25' W 003°31'0 0.0
2015-Jan-21 14:27N 50°25' W 003°31'0 0.0
2015-Jan-21 13:33N 50°25' W 003°31'0 0.0
2015-Jan-21 12:33N 50°25' W 003°31'0 0.0
2015-Jan-21 11:30N 50°25' W 003°31'0 0.0
2015-Jan-21 10:30N 50°25' W 003°31'0 0.0
2015-Jan-21 09:27N 50°25' W 003°31'0 0.0
2015-Jan-21 08:33N 50°25' W 003°31'0 0.0
2015-Jan-21 07:30N 50°25' W 003°31'0 0.0
2015-Jan-21 06:33N 50°25' W 003°31'0 0.0
2015-Jan-21 05:27N 50°25' W 003°31'0 0.1
2015-Jan-21 04:30N 50°25' W 003°31'0 0.0
2015-Jan-21 03:30N 50°25' W 003°31'0 0.0
2015-Jan-21 02:30N 50°25' W 003°31'0 0.0
2015-Jan-21 01:33N 50°25' W 003°31'0 0.0
2015-Jan-21 00:30N 50°25' W 003°31'0 0.1
2015-Jan-20 23:33N 50°25' W 003°31'0 0.0
2015-Jan-20 22:33N 50°25' W 003°31'0 0.0
2015-Jan-20 21:30N 50°25' W 003°31'0 0.0
2015-Jan-20 20:33N 50°25' W 003°31'0 0.0
2015-Jan-20 19:30N 50°25' W 003°31'0 0.0
2015-Jan-20 18:21N 50°25' W 003°31'0 0.0
2015-Jan-20 17:33N 50°25' W 003°31'0 0.0
2015-Jan-20 16:33N 50°25' W 003°31'0 0.0
2015-Jan-20 15:33N 50°25' W 003°31'0 0.0
2015-Jan-20 14:33N 50°25' W 003°31'0 0.1
2015-Jan-20 13:33N 50°25' W 003°31'0 0.1
2015-Jan-20 12:30N 50°25' W 003°31'0 0.0
2015-Jan-20 11:30N 50°25' W 003°31'0 0.0
2015-Jan-20 10:33N 50°25' W 003°31'0 0.0
2015-Jan-20 09:33N 50°25' W 003°31'0 0.0
2015-Jan-20 08:33N 50°25' W 003°31'0 0.0
2015-Jan-20 07:33N 50°25' W 003°31'0 0.0
2015-Jan-20 06:33N 50°25' W 003°31'0 0.0
2015-Jan-20 05:30N 50°25' W 003°31'0 0.0
2015-Jan-20 04:33N 50°25' W 003°31'0 0.0
2015-Jan-20 03:24N 50°25' W 003°31'0 0.0
2015-Jan-20 02:13N 50°25' W 003°31'0 0.0
2015-Jan-20 01:10N 50°25' W 003°31'0 0.0
2015-Jan-20 00:34N 50°25' W 003°31'0 0.0
2015-Jan-19 23:33N 50°25' W 003°31'0 0.1
2015-Jan-19 22:33N 50°25' W 003°31'0 0.0
2015-Jan-19 21:33N 50°25' W 003°31'0 0.0
2015-Jan-19 20:27N 50°25' W 003°31'0 0.0
2015-Jan-19 19:06N 50°25' W 003°31'0 0.0
2015-Jan-19 18:33N 50°25' W 003°31'0 0.0
2015-Jan-19 17:33N 50°25' W 003°31'0 0.3
2015-Jan-19 16:33N 50°25' W 003°31'1010.5
2015-Jan-19 15:34N 50°23' W 003°14'1211.2
2015-Jan-19 14:27N 50°21' W 002°56'12310.2
2015-Jan-19 02:20N 50°35' E 000°17'911.9
2015-Jan-19 01:33N 50°38' E 000°31'1111.4
2015-Jan-19 00:34N 50°44' E 000°46'29 9.6
2015-Jan-18 21:34N 51°02' E 001°22'10 9.8
2015-Jan-18 20:33N 51°08' E 001°34'1111.3
2015-Jan-18 19:34N 51°16' E 001°47'1312.7
2015-Jan-18 18:33N 51°28' E 001°55'4611.1
2015-Jan-18 14:23N 52°02' E 002°45'132 6.0
2015-Jan-17 16:22N 53°48' E 004°57'2 2.4
2015-Jan-17 15:32N 53°47' E 004°60'3 2.8
2015-Jan-17 14:33N 53°46' E 005°04'3 3.5
2015-Jan-17 13:34N 53°45' E 005°09'4 3.9
2015-Jan-17 12:33N 53°45' E 005°16'5 4.8
2015-Jan-17 11:34N 53°44' E 005°24'6 6.3
2015-Jan-17 10:33N 53°44' E 005°35'7 6.4
2015-Jan-17 09:33N 53°45' E 005°46'8 6.8
2015-Jan-17 08:26N 53°46' E 005°58'53 6.8
2015-Jan-17 00:33N 53°60' E 007°26'9 9.0
2015-Jan-16 23:34N 54°02' E 007°40'8 8.0
2015-Jan-16 22:33N 54°01' E 007°54'8 8.3
2015-Jan-16 21:34N 54°01' E 008°08'9 8.7
2015-Jan-16 20:33N 53°60' E 008°23'9 8.8
2015-Jan-16 19:33N 53°57' E 008°38'7 7.3
2015-Jan-16 18:34N 53°52' E 008°45'7 7.4
2015-Jan-16 17:34N 53°51' E 008°57'7 7.3
2015-Jan-16 16:34N 53°54' E 009°09'2 1.6
2015-Jan-16 15:33N 53°55' E 009°11'0 0.0
2015-Jan-16 14:34N 53°55' E 009°11'0 0.0
2015-Jan-16 13:33N 53°55' E 009°11'2 2.1
2015-Jan-16 12:34N 53°56' E 009°13'8 8.3
2015-Jan-16 11:33N 54°04' E 009°19'5 4.8
2015-Jan-16 10:26N 54°09' E 009°22'26 5.4
2015-Jan-16 05:33N 54°22' E 010°01'3 3.3
2015-Jan-16 04:32N 54°22' E 010°07'0 0.0
2015-Jan-16 03:26N 54°22' E 010°07'0 0.0
2015-Jan-16 02:32N 54°22' E 010°07'0 0.0
2015-Jan-16 01:20N 54°22' E 010°07'0 0.0
2015-Jan-16 00:29N 54°22' E 010°07'0 0.0
2015-Jan-15 22:32N 54°22' E 010°07'0 0.0
2015-Jan-15 21:32N 54°22' E 010°07'0 0.0
2015-Jan-15 20:29N 54°22' E 010°07'0 0.0
2015-Jan-15 19:29N 54°22' E 010°07'0 0.0
2015-Jan-15 18:26N 54°22' E 010°07'0 0.0
2015-Jan-15 17:32N 54°22' E 010°07'0 0.0
2015-Jan-15 16:23N 54°22' E 010°07'0 0.0
2015-Jan-15 15:32N 54°22' E 010°07'0 0.0
2015-Jan-15 14:32N 54°22' E 010°07'0 0.0
2015-Jan-15 13:32N 54°22' E 010°07'0 0.0
2015-Jan-15 12:29N 54°22' E 010°07'  

Dump ship's entire track history